Time;durP1;ratioP1;P1;durP2;ratioP2;P2;SDS_P1;SDS_P2;PMS_P1;PMS_P2;Temp;Humidity;BMP_temperature;BMP_pressure;BME280_temperature;BME280_humidity;BME280_pressure;Samples;Min_cycle;Max_cycle;Signal;HPM_P1;HPM_P2
2022/12/14 00:00:44;;;;;;;14.03;6.00;;;1.50;50.90;;;;;;4922890;29;20461;-85
2022/12/14 00:03:12;;;;;;;12.97;6.40;;;1.50;51.40;;;;;;4877103;29;20467;-85
2022/12/14 00:05:40;;;;;;;9.73;5.73;;;1.70;51.50;;;;;;4913828;29;20458;-85
2022/12/14 00:08:08;;;;;;;8.87;5.00;;;1.70;50.90;;;;;;4901476;29;20462;-87
2022/12/14 00:10:36;;;;;;;8.57;6.13;;;1.50;50.90;;;;;;4912549;29;20462;-87
2022/12/14 00:13:04;;;;;;;7.17;5.60;;;1.40;51.70;;;;;;4915868;29;20529;-85
2022/12/14 00:15:31;;;;;;;8.83;5.40;;;1.60;51.40;;;;;;4915022;29;20463;-85
2022/12/14 00:17:58;;;;;;;9.40;6.07;;;1.70;51.50;;;;;;4891980;29;20507;-86
2022/12/14 00:20:26;;;;;;;8.60;4.73;;;1.60;50.70;;;;;;4902480;29;20462;-86
2022/12/14 00:22:55;;;;;;;9.47;6.30;;;1.50;50.90;;;;;;4929100;29;20475;-85
2022/12/14 00:25:22;;;;;;;13.40;8.23;;;1.60;51.40;;;;;;4924042;29;20468;-86
2022/12/14 00:27:49;;;;;;;11.30;5.77;;;1.50;51.20;;;;;;4891384;29;21225;-85
2022/12/14 00:30:19;;;;;;;9.77;5.60;;;1.30;51.20;;;;;;4869261;29;20494;-86
2022/12/14 00:32:46;;;;;;;10.40;6.00;;;1.40;51.50;;;;;;4914620;29;20831;-87
2022/12/14 00:35:16;;;;;;;18.50;7.57;;;1.70;51.50;;;;;;4919119;29;20814;-86
2022/12/14 00:37:43;;;;;;;7.90;4.50;;;1.80;51.10;;;;;;4925598;29;20460;-86
2022/12/14 00:40:12;;;;;;;8.07;5.63;;;1.90;50.60;;;;;;4890589;29;20991;-86
2022/12/14 00:42:39;;;;;;;13.83;7.03;;;1.90;50.20;;;;;;4879597;29;20490;-86
2022/12/14 00:45:08;;;;;;;9.67;5.27;;;1.90;49.80;;;;;;4919672;29;20466;-86
2022/12/14 00:47:35;;;;;;;6.97;4.50;;;1.80;50.00;;;;;;4915666;29;21053;-87
2022/12/14 00:50:02;;;;;;;11.60;6.00;;;1.70;49.90;;;;;;4924734;29;20476;-86
2022/12/14 00:52:29;;;;;;;10.40;6.57;;;1.80;50.70;;;;;;4932280;29;20966;-86
2022/12/14 00:54:56;;;;;;;11.00;6.00;;;1.70;50.40;;;;;;4879672;29;20828;-86
2022/12/14 00:57:24;;;;;;;8.67;5.17;;;1.80;50.40;;;;;;4877158;29;20455;-84
2022/12/14 00:59:51;;;;;;;10.80;5.60;;;1.80;50.40;;;;;;4902460;29;20448;-88
2022/12/14 01:02:18;;;;;;;11.07;6.13;;;1.90;50.20;;;;;;4915088;29;20709;-85
2022/12/14 01:04:45;;;;;;;10.43;6.80;;;2.10;50.10;;;;;;4873174;29;20467;-86
2022/12/14 01:07:12;;;;;;;10.80;6.20;;;2.20;50.10;;;;;;4921501;29;20443;-85
2022/12/14 01:09:39;;;;;;;12.60;7.13;;;2.30;50.00;;;;;;4894024;29;20487;-85
2022/12/14 01:12:06;;;;;;;11.40;6.30;;;2.20;49.60;;;;;;4894854;29;20872;-86
2022/12/14 01:14:34;;;;;;;8.10;5.50;;;2.30;49.80;;;;;;4903805;29;20479;-86
2022/12/14 01:17:01;;;;;;;10.97;5.00;;;2.10;48.80;;;;;;4917628;29;20463;-87
2022/12/14 01:19:28;;;;;;;10.47;5.70;;;1.90;49.80;;;;;;4915012;29;20471;-86
2022/12/14 01:21:55;;;;;;;16.67;6.13;;;1.90;50.00;;;;;;4893296;29;20455;-87
2022/12/14 01:24:22;;;;;;;7.90;4.63;;;2.10;50.20;;;;;;4891220;29;20486;-86
2022/12/14 01:26:49;;;;;;;13.00;7.97;;;2.10;49.80;;;;;;4892764;29;20458;-86
2022/12/14 01:29:16;;;;;;;10.60;4.97;;;1.90;49.70;;;;;;4901827;29;20566;-85
2022/12/14 01:31:45;;;;;;;9.10;4.60;;;1.90;49.90;;;;;;4926891;29;20864;-85
2022/12/14 01:34:12;;;;;;;13.80;6.13;;;2.00;50.00;;;;;;4909636;29;20479;-86
2022/12/14 01:36:39;;;;;;;9.30;5.27;;;2.10;49.90;;;;;;4895775;29;20471;-87
2022/12/14 01:39:09;;;;;;;14.73;5.80;;;2.00;49.80;;;;;;4904601;29;20905;-84
2022/12/14 01:41:38;;;;;;;9.63;5.20;;;2.10;50.10;;;;;;4880126;29;20485;-85
2022/12/14 01:44:41;;;;;;;8.93;5.93;;;2.20;50.20;;;;;;4910764;29;20530;-87
2022/12/14 01:47:18;;;;;;;10.43;7.10;;;2.40;50.30;;;;;;4912578;29;20821;-86
2022/12/14 01:49:49;;;;;;;21.60;9.57;;;2.40;50.10;;;;;;4919592;29;20483;-83
2022/12/14 01:52:20;;;;;;;18.10;7.50;;;2.40;49.90;;;;;;4886491;29;20459;-86
2022/12/14 01:54:52;;;;;;;14.33;7.03;;;2.40;49.90;;;;;;4931406;28;21008;-87
2022/12/14 01:57:24;;;;;;;14.27;7.37;;;2.40;49.80;;;;;;4920454;29;20459;-86
2022/12/14 01:59:51;;;;;;;9.90;5.50;;;2.30;49.80;;;;;;4879227;29;20449;-86
2022/12/14 02:02:20;;;;;;;13.03;6.60;;;2.40;50.20;;;;;;4909753;29;20451;-86
2022/12/14 02:05:00;;;;;;;10.93;5.93;;;2.50;50.00;;;;;;4877458;29;20475;-86
2022/12/14 02:07:29;;;;;;;14.47;7.27;;;2.50;49.40;;;;;;4917935;29;20459;-85
2022/12/14 02:10:00;;;;;;;12.17;5.77;;;2.50;49.20;;;;;;4892309;29;20542;-86
2022/12/14 02:12:31;;;;;;;11.40;6.10;;;2.50;49.30;;;;;;4893500;29;20456;-85
2022/12/14 02:15:00;;;;;;;11.00;5.10;;;2.50;49.40;;;;;;4886758;29;20511;-86
2022/12/14 02:17:28;;;;;;;12.43;6.20;;;2.50;49.50;;;;;;4907833;29;20439;-86
2022/12/14 02:19:57;;;;;;;11.90;6.53;;;2.40;49.30;;;;;;4915681;29;20468;-85
2022/12/14 02:23:05;;;;;;;9.17;6.30;;;2.30;49.50;;;;;;4902157;29;20462;-85
2022/12/14 02:26:04;;;;;;;6.80;5.00;;;2.20;49.40;;;;;;4905028;29;20460;-86
2022/12/14 02:29:01;;;;;;;8.13;4.30;;;2.20;49.60;;;;;;4906826;29;20971;-85
2022/12/14 02:31:37;;;;;;;7.87;5.27;;;2.10;49.30;;;;;;4882174;29;20543;-86
2022/12/14 02:34:12;;;;;;;7.23;4.60;;;2.20;49.40;;;;;;4899496;29;20856;-88
2022/12/14 02:36:46;;;;;;;6.80;5.37;;;2.20;49.20;;;;;;4905738;29;20469;-86
2022/12/14 02:39:23;;;;;;;12.37;5.10;;;2.30;49.30;;;;;;4902488;29;20447;-83
2022/12/14 02:41:59;;;;;;;10.87;5.60;;;2.30;49.50;;;;;;4906489;29;20461;-86
2022/12/14 02:44:34;;;;;;;8.80;4.97;;;2.30;48.80;;;;;;4909526;29;20481;-86
2022/12/14 02:47:09;;;;;;;12.90;6.93;;;2.30;49.30;;;;;;4924690;29;20492;-85
2022/12/14 02:49:52;;;;;;;9.50;5.03;;;2.10;49.30;;;;;;4906933;29;20482;-86
2022/12/14 02:52:29;;;;;;;10.20;5.93;;;2.10;49.60;;;;;;4896680;29;20962;-86
2022/12/14 02:55:00;;;;;;;7.00;4.17;;;1.80;49.80;;;;;;4931385;28;20452;-85
2022/12/14 02:57:31;;;;;;;11.77;6.50;;;1.80;49.70;;;;;;4916366;29;20456;-86
2022/12/14 03:00:02;;;;;;;6.93;4.73;;;2.00;49.90;;;;;;4916270;29;20494;-86
2022/12/14 03:02:34;;;;;;;11.47;6.70;;;2.20;49.90;;;;;;4909701;29;20466;-85
2022/12/14 03:05:01;;;;;;;16.30;5.30;;;2.20;49.50;;;;;;4918222;29;20443;-86
2022/12/14 03:07:39;;;;;;;9.40;5.70;;;1.90;49.10;;;;;;4899694;29;20953;-86
2022/12/14 03:10:12;;;;;;;11.60;6.20;;;2.00;50.20;;;;;;4923822;29;20504;-86
2022/12/14 03:12:44;;;;;;;17.03;7.30;;;2.10;50.00;;;;;;4905540;29;20976;-85
2022/12/14 03:15:14;;;;;;;11.97;6.70;;;2.00;49.40;;;;;;4886414;29;20937;-85
2022/12/14 03:17:46;;;;;;;13.13;6.63;;;2.10;49.80;;;;;;4924833;29;20460;-88
2022/12/14 03:20:19;;;;;;;18.97;6.20;;;2.30;49.80;;;;;;4925686;29;20461;-87
2022/12/14 03:22:52;;;;;;;12.60;7.10;;;2.40;50.00;;;;;;4879844;29;20540;-86
2022/12/14 03:25:22;;;;;;;12.97;7.23;;;2.40;49.60;;;;;;4893102;29;20814;-86
2022/12/14 03:27:55;;;;;;;9.30;6.03;;;2.50;50.00;;;;;;4902892;29;20992;-86
2022/12/14 03:30:23;;;;;;;12.43;7.10;;;2.60;49.90;;;;;;4887580;29;21285;-86
2022/12/14 03:32:55;;;;;;;12.03;7.93;;;2.50;49.30;;;;;;4914204;29;20573;-86
2022/12/14 03:35:27;;;;;;;12.30;5.47;;;2.30;49.10;;;;;;4907660;29;20611;-85
2022/12/14 03:37:58;;;;;;;11.70;6.13;;;2.40;49.10;;;;;;4918025;29;20456;-86
2022/12/14 03:40:34;;;;;;;15.43;6.50;;;2.50;49.30;;;;;;4918014;29;20511;-86
2022/12/14 03:43:05;;;;;;;12.77;8.07;;;2.60;49.30;;;;;;4885620;29;20468;-84
2022/12/14 03:45:44;;;;;;;12.63;7.80;;;2.70;49.50;;;;;;4898902;29;20448;-86
2022/12/14 03:48:23;;;;;;;18.60;7.30;;;2.70;49.20;;;;;;4917954;29;20459;-85
2022/12/14 03:51:00;;;;;;;17.63;7.57;;;2.60;49.00;;;;;;4917201;29;20520;-86
2022/12/14 03:53:37;;;;;;;14.80;6.67;;;2.60;49.40;;;;;;4921110;29;20554;-86
2022/12/14 03:56:11;;;;;;;15.03;6.60;;;2.70;49.00;;;;;;4901806;29;20561;-86
2022/12/14 03:58:46;;;;;;;11.97;6.43;;;2.50;48.40;;;;;;4931164;29;20525;-86
2022/12/14 04:01:20;;;;;;;16.13;6.50;;;2.20;48.60;;;;;;4892817;29;20979;-86
2022/12/14 04:03:56;;;;;;;11.77;6.00;;;2.20;49.20;;;;;;4907661;29;20478;-86
2022/12/14 04:06:30;;;;;;;15.30;6.90;;;2.30;49.60;;;;;;4915420;29;20465;-86
2022/12/14 04:09:07;;;;;;;10.30;6.90;;;2.50;49.20;;;;;;4891171;29;20444;-88
2022/12/14 04:20:07;;;;;;;12.60;6.70;;;2.50;49.40;;;;;;4908650;29;20494;-87
2022/12/14 04:22:39;;;;;;;13.50;6.97;;;2.40;49.30;;;;;;4910546;29;20460;-87
2022/12/14 04:27:59;;;;;;;9.20;5.70;;;2.20;49.40;;;;;;4896842;29;20800;-86
2022/12/14 04:30:27;;;;;;;14.73;8.03;;;2.40;49.40;;;;;;4910494;29;20568;-86
2022/12/14 04:32:58;;;;;;;16.00;7.93;;;2.40;49.10;;;;;;4925764;29;20502;-87
2022/12/14 04:35:33;;;;;;;14.63;6.67;;;2.50;49.00;;;;;;4935924;28;20852;-86
2022/12/14 04:38:04;;;;;;;15.47;7.37;;;2.50;48.90;;;;;;4894963;29;20450;-86
2022/12/14 04:40:36;;;;;;;10.87;6.80;;;2.50;48.40;;;;;;4904022;29;20969;-86
2022/12/14 04:43:08;;;;;;;13.20;6.57;;;2.50;48.70;;;;;;4889067;29;20523;-86
2022/12/14 04:45:40;;;;;;;19.37;8.40;;;2.40;48.50;;;;;;4895131;29;20454;-85
2022/12/14 04:48:15;;;;;;;14.57;7.97;;;2.60;49.10;;;;;;4903338;29;20455;-86
2022/12/14 04:50:47;;;;;;;11.40;6.97;;;2.50;49.00;;;;;;4910644;29;20573;-86
2022/12/14 04:53:18;;;;;;;9.30;5.33;;;2.50;49.00;;;;;;4912482;29;21048;-86
2022/12/14 04:55:52;;;;;;;17.00;7.80;;;2.50;48.60;;;;;;4907503;29;21020;-86
2022/12/14 04:58:24;;;;;;;12.20;7.13;;;2.40;49.10;;;;;;4903746;29;20970;-85
2022/12/14 05:01:09;;;;;;;10.40;7.00;;;2.50;49.00;;;;;;4901829;29;20443;-85
2022/12/14 05:03:44;;;;;;;11.07;6.33;;;2.30;48.30;;;;;;4901643;29;20522;-86
2022/12/14 05:06:20;;;;;;;14.23;7.60;;;2.50;48.90;;;;;;4911190;29;20586;-86
2022/12/14 05:09:09;;;;;;;11.37;7.27;;;2.70;49.40;;;;;;4917518;29;20447;-86
2022/12/14 05:11:41;;;;;;;11.07;7.23;;;2.70;49.50;;;;;;4892724;29;20480;-86
2022/12/14 05:14:14;;;;;;;24.33;6.60;;;2.90;49.40;;;;;;4884474;29;20512;-84
2022/12/14 05:16:41;;;;;;;12.30;6.70;;;2.90;49.20;;;;;;4921322;29;20448;-88
2022/12/14 05:19:09;;;;;;;22.23;8.17;;;2.90;48.60;;;;;;4893742;29;20562;-87
2022/12/14 05:21:49;;;;;;;14.93;6.60;;;2.80;48.10;;;;;;4900190;29;20457;-86
2022/12/14 05:24:17;;;;;;;16.17;6.00;;;2.80;48.20;;;;;;4920615;29;20506;-85
2022/12/14 05:26:44;;;;;;;14.27;6.10;;;2.70;48.20;;;;;;4911272;29;20454;-86
2022/12/14 05:29:11;;;;;;;13.37;6.70;;;2.40;48.10;;;;;;4895448;29;20464;-85
2022/12/14 05:31:38;;;;;;;9.67;6.37;;;2.20;48.10;;;;;;4908926;29;21401;-86
2022/12/14 05:34:06;;;;;;;13.23;7.63;;;2.30;49.10;;;;;;4918537;29;20480;-86
2022/12/14 05:36:33;;;;;;;13.10;7.03;;;2.40;49.30;;;;;;4889643;29;20469;-86
2022/12/14 05:39:01;;;;;;;10.60;6.53;;;2.30;48.30;;;;;;4893996;29;20459;-86
2022/12/14 05:41:28;;;;;;;14.97;7.20;;;2.30;48.60;;;;;;4889748;29;20511;-86
2022/12/14 05:43:55;;;;;;;12.10;7.13;;;2.40;49.00;;;;;;4917918;29;20486;-86
2022/12/14 05:46:22;;;;;;;19.43;7.57;;;2.50;49.20;;;;;;4934267;29;21160;-85
2022/12/14 05:48:49;;;;;;;10.80;6.37;;;2.60;49.20;;;;;;4886689;29;20471;-86
2022/12/14 05:51:16;;;;;;;14.30;7.10;;;2.70;48.60;;;;;;4904513;29;20484;-86
2022/12/14 05:53:43;;;;;;;12.73;7.60;;;2.50;48.30;;;;;;4893880;29;20478;-87
2022/12/14 05:56:12;;;;;;;18.73;7.00;;;2.40;48.40;;;;;;4919187;29;20455;-86
2022/12/14 05:58:39;;;;;;;13.90;6.33;;;2.30;48.10;;;;;;4906444;29;20458;-86
2022/12/14 06:01:09;;;;;;;17.93;7.40;;;2.30;48.90;;;;;;4903340;29;20449;-86
2022/12/14 06:03:36;;;;;;;14.23;8.70;;;2.30;49.10;;;;;;4907392;29;20479;-86
2022/12/14 06:06:03;;;;;;;15.40;8.60;;;2.40;48.90;;;;;;4907197;29;20456;-86
2022/12/14 06:08:34;;;;;;;10.10;6.50;;;2.10;48.40;;;;;;4906413;29;20466;-86
2022/12/14 06:11:02;;;;;;;11.97;6.63;;;2.10;49.60;;;;;;4905766;29;20583;-86
2022/12/14 06:13:31;;;;;;;12.97;7.47;;;2.20;49.50;;;;;;4906735;29;20475;-86
2022/12/14 06:16:08;;;;;;;11.67;6.70;;;2.40;49.30;;;;;;4885142;29;20468;-84
2022/12/14 06:18:35;;;;;;;12.67;7.60;;;2.40;49.10;;;;;;4901936;29;20475;-85
2022/12/14 06:21:02;;;;;;;11.43;6.83;;;2.30;48.30;;;;;;4893320;29;20955;-86
2022/12/14 06:23:29;;;;;;;12.30;7.40;;;2.20;48.80;;;;;;4890365;29;20500;-87
2022/12/14 06:25:56;;;;;;;18.87;8.20;;;2.10;48.60;;;;;;4892165;29;20463;-86
2022/12/14 06:28:23;;;;;;;17.80;9.10;;;2.30;49.10;;;;;;4886239;29;20489;-86
2022/12/14 06:30:52;;;;;;;13.10;7.70;;;2.50;48.90;;;;;;4876221;29;20994;-86
2022/12/14 06:33:19;;;;;;;17.67;6.90;;;2.40;48.20;;;;;;4890438;29;20903;-85
2022/12/14 06:35:46;;;;;;;13.97;8.17;;;2.50;48.40;;;;;;4889248;29;20451;-85
2022/12/14 06:38:14;;;;;;;9.70;6.90;;;2.50;48.30;;;;;;4913071;29;20836;-86
2022/12/14 06:40:41;;;;;;;14.37;7.57;;;2.70;48.50;;;;;;4912801;29;20462;-86
2022/12/14 06:43:08;;;;;;;14.20;8.40;;;2.70;47.90;;;;;;4901539;29;20797;-86
2022/12/14 06:45:35;;;;;;;15.23;6.03;;;2.70;48.00;;;;;;4905819;29;20469;-86
2022/12/14 06:48:04;;;;;;;13.47;7.07;;;2.40;48.60;;;;;;4906892;29;20456;-86
2022/12/14 06:50:31;;;;;;;12.13;6.60;;;2.30;48.30;;;;;;4902364;29;20855;-86
2022/12/14 06:52:58;;;;;;;15.30;7.03;;;2.50;48.60;;;;;;4901975;29;21044;-85
2022/12/14 06:55:27;;;;;;;14.67;7.60;;;2.40;47.90;;;;;;4913329;29;20454;-85
2022/12/14 06:57:55;;;;;;;15.13;9.13;;;2.30;48.40;;;;;;4922104;29;20553;-87
2022/12/14 07:00:23;;;;;;;13.57;6.73;;;2.30;49.00;;;;;;4889427;29;20479;-86
2022/12/14 07:02:50;;;;;;;10.17;6.30;;;2.40;49.60;;;;;;4928385;28;20482;-83
2022/12/14 07:05:19;;;;;;;20.57;7.77;;;2.40;48.60;;;;;;4876420;29;21040;-86
2022/12/14 07:07:46;;;;;;;18.77;7.30;;;2.40;48.80;;;;;;4921856;29;20462;-86
2022/12/14 07:10:14;;;;;;;14.97;8.20;;;2.50;48.30;;;;;;4871041;29;20474;-87
2022/12/14 07:12:41;;;;;;;12.50;6.87;;;2.40;48.30;;;;;;4898373;29;20457;-85
2022/12/14 07:15:09;;;;;;;32.50;7.57;;;2.60;48.20;;;;;;4882244;29;20531;-86
2022/12/14 07:17:37;;;;;;;8.27;5.87;;;2.70;48.20;;;;;;4905059;29;20468;-87
2022/12/14 07:20:06;;;;;;;15.00;7.10;;;2.90;48.40;;;;;;4905487;29;20510;-86
2022/12/14 07:22:35;;;;;;;12.50;6.57;;;2.90;48.10;;;;;;4890525;29;20538;-86
2022/12/14 07:25:03;;;;;;;15.60;8.57;;;2.80;47.50;;;;;;4913639;29;20463;-86
2022/12/14 07:27:30;;;;;;;15.40;7.53;;;2.80;47.50;;;;;;4897556;29;20981;-86
2022/12/14 07:29:57;;;;;;;15.23;9.07;;;2.60;47.50;;;;;;4884547;29;20535;-86
2022/12/14 07:32:24;;;;;;;15.80;7.97;;;2.60;48.40;;;;;;4874343;29;20476;-88
2022/12/14 07:34:51;;;;;;;15.27;7.20;;;2.60;48.10;;;;;;4898257;29;20834;-84
2022/12/14 07:37:19;;;;;;;12.40;7.73;;;2.70;47.70;;;;;;4929922;29;20465;-87
2022/12/14 07:39:47;;;;;;;13.80;8.17;;;2.20;47.60;;;;;;4892599;29;20456;-86
2022/12/14 07:42:14;;;;;;;11.33;7.17;;;2.10;48.80;;;;;;4899239;29;20443;-86
2022/12/14 07:44:47;;;;;;;9.70;6.77;;;2.30;48.60;;;;;;4899111;29;20496;-86
2022/12/14 07:47:14;;;;;;;13.07;6.23;;;2.30;48.60;;;;;;4898986;29;20456;-87
2022/12/14 07:49:41;;;;;;;11.00;7.93;;;2.40;48.80;;;;;;4904676;29;20466;-87
2022/12/14 07:52:09;;;;;;;16.67;8.80;;;2.30;48.90;;;;;;4912413;29;20586;-87
2022/12/14 07:54:36;;;;;;;15.27;8.13;;;2.60;49.20;;;;;;4918570;29;20479;-87
2022/12/14 07:57:04;;;;;;;19.60;8.50;;;2.80;48.90;;;;;;4914192;29;20473;-86
2022/12/14 07:59:31;;;;;;;14.23;7.07;;;2.60;47.50;;;;;;4880873;29;20448;-86
2022/12/14 08:01:58;;;;;;;15.33;6.50;;;2.40;47.60;;;;;;4905191;29;20451;-87
2022/12/14 08:04:26;;;;;;;11.63;6.87;;;2.40;48.60;;;;;;4873621;29;20561;-86
2022/12/14 08:06:54;;;;;;;12.10;6.93;;;2.20;48.30;;;;;;4915126;29;20483;-86
2022/12/14 08:09:21;;;;;;;9.00;6.13;;;2.00;48.30;;;;;;4896925;29;20893;-87
2022/12/14 08:11:49;;;;;;;16.07;7.90;;;1.80;49.70;;;;;;4910023;29;20486;-88
2022/12/14 08:14:18;;;;;;;14.90;7.00;;;1.80;49.70;;;;;;4927623;29;20481;-86
2022/12/14 08:16:47;;;;;;;11.00;6.70;;;1.80;49.80;;;;;;4915653;29;21020;-86
2022/12/14 08:19:14;;;;;;;16.80;6.83;;;2.00;50.00;;;;;;4912931;29;20477;-87
2022/12/14 08:21:41;;;;;;;10.37;5.50;;;1.80;49.40;;;;;;4921836;29;20456;-86
2022/12/14 08:24:10;;;;;;;11.73;7.60;;;1.70;50.00;;;;;;4896946;29;20480;-86
2022/12/14 08:26:37;;;;;;;10.33;5.10;;;1.70;50.80;;;;;;4915203;29;20542;-86
2022/12/14 08:29:05;;;;;;;13.70;6.90;;;1.60;50.70;;;;;;4897971;29;20475;-85
2022/12/14 08:31:34;;;;;;;13.10;7.67;;;1.50;51.20;;;;;;4904327;29;20563;-85
2022/12/14 08:34:03;;;;;;;16.17;7.37;;;1.40;52.10;;;;;;4929796;28;20506;-85
2022/12/14 08:36:33;;;;;;;8.27;5.40;;;1.60;52.20;;;;;;4882881;29;21096;-86
2022/12/14 08:39:02;;;;;;;11.53;6.53;;;1.90;52.10;;;;;;4895356;29;20467;-86
2022/12/14 08:41:29;;;;;;;11.47;7.37;;;2.30;51.90;;;;;;4908658;29;21004;-86
2022/12/14 08:43:57;;;;;;;12.27;6.27;;;2.40;50.70;;;;;;4898954;29;21169;-86
2022/12/14 08:46:26;;;;;;;19.87;7.70;;;2.70;50.40;;;;;;4916623;29;20453;-86
2022/12/14 08:48:55;;;;;;;14.47;8.20;;;2.60;49.80;;;;;;4897453;29;20469;-88
2022/12/14 08:51:23;;;;;;;17.07;8.87;;;2.50;50.50;;;;;;4897612;29;21017;-86
2022/12/14 08:53:51;;;;;;;15.67;7.20;;;2.40;50.40;;;;;;4897151;29;20479;-86
2022/12/14 08:56:21;;;;;;;13.03;8.13;;;2.60;51.30;;;;;;4919933;29;20537;-87
2022/12/14 08:58:48;;;;;;;15.07;7.80;;;2.70;51.00;;;;;;4909884;29;20455;-86
2022/12/14 09:01:18;;;;;;;9.03;5.57;;;2.50;50.10;;;;;;4883766;29;20443;-87
2022/12/14 09:03:46;;;;;;;14.20;7.23;;;2.10;50.40;;;;;;4887015;29;20498;-85
2022/12/14 09:06:17;;;;;;;13.07;7.20;;;1.90;51.80;;;;;;4903565;29;20631;-85
2022/12/14 09:08:44;;;;;;;15.37;7.70;;;2.00;52.10;;;;;;4901676;29;20946;-86
2022/12/14 09:11:13;;;;;;;14.50;8.87;;;2.20;52.30;;;;;;4916628;29;20468;-86
2022/12/14 09:13:40;;;;;;;11.30;7.57;;;2.30;51.70;;;;;;4913397;29;20482;-86
2022/12/14 09:16:10;;;;;;;20.27;9.60;;;2.40;52.00;;;;;;4902801;29;20462;-87
2022/12/14 09:18:37;;;;;;;14.30;7.90;;;2.30;52.60;;;;;;4907959;29;20520;-87
2022/12/14 09:21:05;;;;;;;17.43;9.30;;;2.30;53.30;;;;;;4900749;29;20552;-86
2022/12/14 09:23:35;;;;;;;11.87;7.53;;;2.20;52.90;;;;;;4901526;29;20490;-88
2022/12/14 09:26:03;;;;;;;18.40;8.63;;;2.20;52.70;;;;;;4932053;29;20486;-86
2022/12/14 09:28:32;;;;;;;13.77;7.13;;;2.30;53.20;;;;;;4899466;29;20462;-86
2022/12/14 09:31:01;;;;;;;16.73;7.23;;;2.20;53.30;;;;;;4901992;29;20483;-87
2022/12/14 09:33:28;;;;;;;12.50;7.30;;;2.30;53.60;;;;;;4916889;29;20489;-86
2022/12/14 09:36:00;;;;;;;10.60;6.80;;;2.40;53.50;;;;;;4904020;29;20463;-85
2022/12/14 09:38:27;;;;;;;15.10;8.27;;;2.00;53.90;;;;;;4877287;29;20459;-86
2022/12/14 09:40:58;;;;;;;15.80;8.43;;;2.10;54.70;;;;;;4903627;29;20463;-88
2022/12/14 09:43:37;;;;;;;16.00;9.30;;;1.90;55.30;;;;;;4908008;29;20585;-86
2022/12/14 09:46:20;;;;;;;18.67;9.07;;;2.00;55.20;;;;;;4915789;29;20580;-86
2022/12/14 09:48:48;;;;;;;20.33;10.30;;;2.00;55.10;;;;;;4899610;29;20451;-86
2022/12/14 09:51:17;;;;;;;22.03;10.53;;;2.00;55.20;;;;;;4900257;29;20475;-86
2022/12/14 09:53:47;;;;;;;15.37;9.03;;;2.10;55.20;;;;;;4901898;29;21127;-85
2022/12/14 09:56:18;;;;;;;20.13;8.13;;;2.20;54.90;;;;;;4893901;29;21035;-86
2022/12/14 09:58:53;;;;;;;15.87;9.37;;;2.20;54.30;;;;;;4897886;29;20876;-86
2022/12/14 10:01:46;;;;;;;15.50;8.23;;;2.30;54.70;;;;;;4868978;29;20969;-83
2022/12/14 10:04:25;;;;;;;17.53;8.47;;;2.40;54.30;;;;;;4895261;29;20488;-86
2022/12/14 10:07:00;;;;;;;18.07;8.87;;;2.70;54.10;;;;;;4908040;29;20957;-86
2022/12/14 10:09:36;;;;;;;17.40;9.30;;;2.80;53.30;;;;;;4915506;29;20451;-86
2022/12/14 10:12:16;;;;;;;18.57;8.17;;;2.90;53.20;;;;;;4916634;29;20521;-88
2022/12/14 10:14:56;;;;;;;14.73;8.60;;;2.80;53.00;;;;;;4893202;29;20472;-85
2022/12/14 10:17:41;;;;;;;18.77;9.27;;;2.50;53.80;;;;;;4884303;29;20459;-85
2022/12/14 10:20:20;;;;;;;17.93;9.37;;;2.50;54.60;;;;;;4891238;29;20533;-85
2022/12/14 10:22:51;;;;;;;17.83;9.00;;;2.50;54.30;;;;;;4917815;29;20470;-86
2022/12/14 10:25:21;;;;;;;17.20;9.23;;;2.50;54.70;;;;;;4915667;29;20581;-86
2022/12/14 10:27:55;;;;;;;15.47;8.40;;;2.60;54.60;;;;;;4885446;29;20506;-86
2022/12/14 10:30:22;;;;;;;15.53;9.07;;;2.50;53.90;;;;;;4922882;29;20465;-86
2022/12/14 10:32:52;;;;;;;12.90;8.60;;;2.60;54.50;;;;;;4916756;29;20482;-86
2022/12/14 10:35:23;;;;;;;14.97;7.83;;;2.60;54.00;;;;;;4914886;29;20455;-87
2022/12/14 10:37:55;;;;;;;16.53;7.37;;;2.50;53.70;;;;;;4902583;29;20459;-87
2022/12/14 10:40:27;;;;;;;16.17;8.10;;;2.40;54.40;;;;;;4921790;29;21028;-86
2022/12/14 10:43:20;;;;;;;13.30;7.40;;;2.30;54.60;;;;;;4877583;29;20466;-87
2022/12/14 10:45:56;;;;;;;17.83;9.27;;;2.40;54.60;;;;;;4879846;29;20459;-85
2022/12/14 10:48:38;;;;;;;16.13;8.37;;;2.40;55.10;;;;;;4914330;29;20435;-84
2022/12/14 10:51:07;;;;;;;26.00;10.07;;;2.70;54.60;;;;;;4928580;28;20466;-88
2022/12/14 10:53:40;;;;;;;21.17;12.10;;;2.50;53.60;;;;;;4906992;29;20840;-86
2022/12/14 10:56:13;;;;;;;22.83;9.07;;;2.60;54.10;;;;;;4876184;29;21001;-86
2022/12/14 10:58:41;;;;;;;20.13;9.40;;;2.80;54.50;;;;;;4927556;29;20467;-85
2022/12/14 11:01:13;;;;;;;18.17;9.27;;;2.60;53.40;;;;;;4907279;29;20452;-86
2022/12/14 11:03:42;;;;;;;16.20;8.60;;;2.80;54.40;;;;;;4883283;29;20488;-86
2022/12/14 11:06:14;;;;;;;19.07;9.47;;;2.90;54.00;;;;;;4906774;29;20457;-86
2022/12/14 11:08:44;;;;;;;20.03;9.63;;;3.10;54.00;;;;;;4913968;29;20512;-86
2022/12/14 11:11:16;;;;;;;21.30;8.80;;;3.40;54.60;;;;;;4884706;29;20543;-86
2022/12/14 11:13:52;;;;;;;18.77;9.67;;;3.40;53.40;;;;;;4922148;29;20468;-86
2022/12/14 11:16:28;;;;;;;19.60;8.80;;;3.20;53.00;;;;;;4901811;29;20539;-85
2022/12/14 11:19:00;;;;;;;15.77;7.83;;;3.10;53.60;;;;;;4884470;29;20981;-84
2022/12/14 11:21:35;;;;;;;15.70;9.40;;;3.00;54.30;;;;;;4900266;29;20439;-86
2022/12/14 11:24:03;;;;;;;21.37;10.17;;;3.10;53.90;;;;;;4891981;29;20471;-87
2022/12/14 11:26:35;;;;;;;18.40;8.90;;;3.20;54.40;;;;;;4897086;29;20834;-84
2022/12/14 11:29:06;;;;;;;18.37;9.80;;;3.20;54.60;;;;;;4889553;29;20451;-86
2022/12/14 11:31:36;;;;;;;14.03;9.03;;;3.40;54.20;;;;;;4899625;29;20614;-86
2022/12/14 11:34:06;;;;;;;19.17;10.27;;;3.50;54.40;;;;;;4930351;29;20493;-85
2022/12/14 11:36:36;;;;;;;22.87;10.67;;;3.30;54.30;;;;;;4897429;29;20465;-87
2022/12/14 11:39:06;;;;;;;13.80;8.60;;;3.60;54.70;;;;;;4926076;29;20503;-86
2022/12/14 11:41:35;;;;;;;21.53;9.77;;;3.40;54.10;;;;;;4914145;29;20460;-86
2022/12/14 11:44:06;;;;;;;19.03;9.30;;;3.20;54.40;;;;;;4928940;28;20483;-85
2022/12/14 11:46:51;;;;;;;19.13;7.93;;;2.80;54.70;;;;;;4890690;29;20535;-86
2022/12/14 11:49:25;;;;;;;16.07;7.60;;;3.00;55.60;;;;;;4913440;29;20466;-84
2022/12/14 11:52:00;;;;;;;20.23;10.57;;;3.00;54.90;;;;;;4902372;29;20514;-85
2022/12/14 11:54:28;;;;;;;16.93;8.60;;;3.30;55.10;;;;;;4900238;29;20489;-85
2022/12/14 11:57:00;;;;;;;20.67;10.87;;;3.30;55.00;;;;;;4902732;29;20448;-86
2022/12/14 11:59:36;;;;;;;24.40;11.70;;;3.20;54.70;;;;;;4914113;29;20469;-85
2022/12/14 12:02:20;;;;;;;20.40;9.50;;;3.10;55.30;;;;;;4922318;29;20468;-85
2022/12/14 12:04:50;;;;;;;15.70;8.80;;;3.30;55.40;;;;;;4906549;29;20486;-86
2022/12/14 12:07:32;;;;;;;16.73;10.10;;;3.40;55.00;;;;;;4913441;29;20829;-86
2022/12/14 12:10:15;;;;;;;19.73;9.70;;;3.60;54.80;;;;;;4912874;29;20813;-85
2022/12/14 12:12:48;;;;;;;14.00;9.03;;;3.60;54.40;;;;;;4928316;29;20479;-86
2022/12/14 12:15:21;;;;;;;15.33;8.80;;;3.60;54.30;;;;;;4889723;29;20488;-85
2022/12/14 12:17:52;;;;;;;17.63;7.80;;;3.70;54.60;;;;;;4901703;29;20451;-85
2022/12/14 12:20:31;;;;;;;18.07;10.10;;;3.20;54.30;;;;;;4907092;29;20455;-86
2022/12/14 12:23:06;;;;;;;28.33;10.07;;;3.20;55.10;;;;;;4915646;29;20470;-85
2022/12/14 12:25:35;;;;;;;24.90;9.47;;;3.40;55.50;;;;;;4891136;29;20915;-85
2022/12/14 12:28:10;;;;;;;21.10;10.10;;;3.40;54.40;;;;;;4913108;29;20944;-83
2022/12/14 12:30:42;;;;;;;17.73;9.50;;;3.10;55.50;;;;;;4908303;29;20454;-85
2022/12/14 12:33:22;;;;;;;24.33;10.83;;;3.50;55.70;;;;;;4885510;29;20581;-86
2022/12/14 12:35:53;;;;;;;17.57;9.10;;;3.50;54.80;;;;;;4919148;29;20454;-86
2022/12/14 12:38:31;;;;;;;12.03;8.43;;;3.40;55.00;;;;;;4920979;29;20466;-84
2022/12/14 12:41:03;;;;;;;18.10;10.70;;;3.50;55.20;;;;;;4895938;29;20462;-86
2022/12/14 12:43:35;;;;;;;17.70;11.23;;;3.70;54.80;;;;;;4909802;29;20570;-86
2022/12/14 12:46:12;;;;;;;18.90;10.30;;;3.50;54.00;;;;;;4878207;29;20462;-84
2022/12/14 12:48:46;;;;;;;18.93;10.37;;;3.40;54.80;;;;;;4887842;29;20473;-85
2022/12/14 12:51:19;;;;;;;20.10;10.90;;;3.30;54.40;;;;;;4933991;28;20455;-85
2022/12/14 12:53:49;;;;;;;18.33;9.97;;;3.30;54.60;;;;;;4900015;29;20487;-86
2022/12/14 12:56:20;;;;;;;15.33;9.10;;;3.20;55.00;;;;;;4919815;29;20504;-86
2022/12/14 12:58:49;;;;;;;22.10;10.70;;;3.30;54.60;;;;;;4908346;29;20602;-86
2022/12/14 13:01:27;;;;;;;19.57;9.47;;;3.40;54.70;;;;;;4901613;29;20554;-87
2022/12/14 13:03:58;;;;;;;17.77;10.70;;;3.50;54.20;;;;;;4932484;29;20479;-87
2022/12/14 13:06:30;;;;;;;22.57;11.30;;;3.30;54.00;;;;;;4907739;29;20639;-86
2022/12/14 13:08:59;;;;;;;20.80;9.97;;;3.40;54.40;;;;;;4903802;29;20466;-86
2022/12/14 13:11:31;;;;;;;31.00;13.30;;;3.40;54.50;;;;;;4871204;29;20462;-86
2022/12/14 13:14:02;;;;;;;35.63;13.90;;;3.40;54.50;;;;;;4903567;29;20493;-86
2022/12/14 13:16:34;;;;;;;22.60;12.20;;;3.10;54.70;;;;;;4930765;29;20452;-87
2022/12/14 13:19:09;;;;;;;31.53;15.53;;;2.70;55.10;;;;;;4910207;29;20465;-86